Time;durP1;ratioP1;P1;durP2;ratioP2;P2;SDS_P1;SDS_P2;PMS_P1;PMS_P2;Temp;Humidity;BMP_temperature;BMP_pressure;BME280_temperature;BME280_humidity;BME280_pressure;Samples;Min_cycle;Max_cycle;Signal;HPM_P1;HPM_P2
2022/05/08 00:00:35;;;;;;;24.10;5.20;;;8.60;99.90;;;;;;5102655;28;20043;-66
2022/05/08 00:03:00;;;;;;;21.42;5.38;;;8.60;99.90;;;;;;5105848;28;20086;-67
2022/05/08 00:05:26;;;;;;;22.10;5.35;;;8.60;99.90;;;;;;5085731;28;20066;-67
2022/05/08 00:07:53;;;;;;;25.42;4.80;;;8.60;99.90;;;;;;5087563;28;20063;-67
2022/05/08 00:10:19;;;;;;;25.60;5.38;;;8.50;99.90;;;;;;5083190;28;20039;-67
2022/05/08 00:12:45;;;;;;;26.10;4.70;;;8.50;99.90;;;;;;5094757;28;20448;-67
2022/05/08 00:15:11;;;;;;;20.92;4.43;;;8.50;99.90;;;;;;5082808;28;20047;-67
2022/05/08 00:17:36;;;;;;;22.27;4.43;;;8.50;99.90;;;;;;5107681;28;20036;-67
2022/05/08 00:20:05;;;;;;;22.80;4.60;;;8.40;99.90;;;;;;5101862;28;20066;-67
2022/05/08 00:22:30;;;;;;;19.00;4.68;;;8.40;99.90;;;;;;5084568;28;20113;-67
2022/05/08 00:24:56;;;;;;;24.02;5.22;;;8.20;99.90;;;;;;5099731;28;20040;-67
2022/05/08 00:27:22;;;;;;;22.35;5.10;;;8.30;99.90;;;;;;5101007;28;20158;-67
2022/05/08 00:29:48;;;;;;;16.10;4.40;;;8.30;99.90;;;;;;5079340;28;20101;-67
2022/05/08 00:32:14;;;;;;;25.00;4.72;;;8.20;99.90;;;;;;5103351;28;20071;-67
2022/05/08 00:34:39;;;;;;;22.95;4.45;;;8.20;99.90;;;;;;5081412;28;20496;-67
2022/05/08 00:37:05;;;;;;;16.13;4.00;;;8.10;99.90;;;;;;5084211;28;20158;-67
2022/05/08 00:39:32;;;;;;;15.90;4.20;;;8.10;99.90;;;;;;5100669;28;20050;-67
2022/05/08 00:41:59;;;;;;;22.63;4.68;;;8.10;99.90;;;;;;5107519;28;20051;-67
2022/05/08 00:44:24;;;;;;;20.17;4.45;;;8.00;99.90;;;;;;5078309;28;20067;-67
2022/05/08 00:46:50;;;;;;;29.15;5.30;;;8.00;99.90;;;;;;5106465;28;20064;-67
2022/05/08 00:49:16;;;;;;;25.67;5.07;;;7.90;99.90;;;;;;5100470;28;20036;-67
2022/05/08 00:51:47;;;;;;;21.63;4.75;;;7.90;99.90;;;;;;5096362;28;20094;-67
2022/05/08 00:54:13;;;;;;;21.05;4.65;;;7.80;99.90;;;;;;5098728;28;20429;-67
2022/05/08 00:56:40;;;;;;;14.07;4.13;;;7.80;99.90;;;;;;5097934;28;20047;-67
2022/05/08 00:59:05;;;;;;;17.65;3.63;;;7.80;99.90;;;;;;5098169;28;20505;-67
2022/05/08 01:01:31;;;;;;;16.65;4.40;;;7.70;99.90;;;;;;5098041;28;20044;-67
2022/05/08 01:03:57;;;;;;;19.95;4.53;;;7.70;99.90;;;;;;5097868;28;20044;-67
2022/05/08 01:06:23;;;;;;;19.98;4.57;;;7.70;99.90;;;;;;5101099;28;20039;-67
2022/05/08 01:08:51;;;;;;;21.23;4.30;;;7.60;99.90;;;;;;5102581;28;20441;-67
2022/05/08 01:11:18;;;;;;;23.92;5.03;;;7.50;99.90;;;;;;5100799;28;20111;-67
2022/05/08 01:13:45;;;;;;;23.02;5.43;;;7.50;99.90;;;;;;5078725;28;20036;-67
2022/05/08 01:16:13;;;;;;;18.98;5.05;;;7.50;99.90;;;;;;5100321;28;20039;-67
2022/05/08 01:18:39;;;;;;;17.85;4.53;;;7.40;99.90;;;;;;5085145;28;20048;-67
2022/05/08 01:21:10;;;;;;;25.05;6.15;;;7.40;99.90;;;;;;5101784;28;20050;-67
2022/05/08 01:23:37;;;;;;;18.48;5.40;;;7.30;99.90;;;;;;5099662;28;20058;-67
2022/05/08 01:26:03;;;;;;;16.58;5.07;;;7.30;99.90;;;;;;5080207;28;20044;-67
2022/05/08 01:28:29;;;;;;;19.77;4.60;;;7.30;99.90;;;;;;5100486;28;20046;-67
2022/05/08 01:30:56;;;;;;;24.65;5.28;;;7.20;99.90;;;;;;5099361;28;20087;-67
2022/05/08 01:33:22;;;;;;;14.10;4.90;;;7.20;99.90;;;;;;5095816;28;20066;-67
2022/05/08 01:35:51;;;;;;;18.23;4.85;;;7.20;99.90;;;;;;5099360;28;20709;-67
2022/05/08 01:38:20;;;;;;;15.25;4.70;;;7.20;99.90;;;;;;5079677;28;20077;-67
2022/05/08 01:40:46;;;;;;;23.52;5.32;;;7.10;99.90;;;;;;5100803;28;20096;-67
2022/05/08 01:43:12;;;;;;;20.48;5.28;;;7.10;99.90;;;;;;5094060;28;20036;-66
2022/05/08 01:45:39;;;;;;;23.02;5.45;;;7.00;99.90;;;;;;5100723;28;20035;-66
2022/05/08 01:48:26;;;;;;;13.13;4.10;;;7.00;99.90;;;;;;5095009;28;20759;-66
2022/05/08 01:50:54;;;;;;;18.90;4.80;;;7.00;99.90;;;;;;5101147;28;20048;-66
2022/05/08 01:53:21;;;;;;;19.38;5.10;;;6.90;99.90;;;;;;5075470;28;20048;-66
2022/05/08 01:55:49;;;;;;;15.05;4.03;;;6.80;99.90;;;;;;5078583;28;20044;-66
2022/05/08 01:58:19;;;;;;;20.73;4.90;;;6.80;99.90;;;;;;5103179;28;20097;-67
2022/05/08 02:00:46;;;;;;;21.20;4.85;;;6.80;99.90;;;;;;5101818;28;20089;-67
2022/05/08 02:03:12;;;;;;;21.58;4.72;;;6.70;99.90;;;;;;5098701;28;20086;-67
2022/05/08 02:05:40;;;;;;;17.38;4.43;;;6.70;99.90;;;;;;5086712;28;20047;-67
2022/05/08 02:08:07;;;;;;;19.20;4.40;;;6.70;99.90;;;;;;5096637;28;20137;-67
2022/05/08 02:10:33;;;;;;;24.60;5.30;;;6.70;99.90;;;;;;5098402;28;20036;-67
2022/05/08 02:12:58;;;;;;;18.80;4.50;;;6.70;99.90;;;;;;5083502;28;20028;-67
2022/05/08 02:15:29;;;;;;;17.80;4.72;;;6.60;99.90;;;;;;5098924;28;20545;-67
2022/05/08 02:17:57;;;;;;;20.20;4.55;;;6.60;99.90;;;;;;5103352;28;20043;-67
2022/05/08 02:20:24;;;;;;;19.42;4.45;;;6.60;99.90;;;;;;5079417;28;20518;-67
2022/05/08 02:22:49;;;;;;;16.48;4.18;;;6.60;99.90;;;;;;5099133;28;20036;-67
2022/05/08 02:25:15;;;;;;;19.20;4.43;;;6.50;99.90;;;;;;5098759;28;20111;-67
2022/05/08 02:27:44;;;;;;;14.38;4.97;;;6.40;99.90;;;;;;5079156;28;20055;-67
2022/05/08 02:30:11;;;;;;;17.25;5.07;;;6.40;99.90;;;;;;5096921;28;20093;-67
2022/05/08 02:32:38;;;;;;;20.42;5.47;;;6.40;99.90;;;;;;5097510;28;20070;-67
2022/05/08 02:35:06;;;;;;;20.52;4.80;;;6.40;99.90;;;;;;5074558;28;20071;-67
2022/05/08 02:37:32;;;;;;;19.70;5.18;;;6.30;99.90;;;;;;5076933;28;20413;-67
2022/05/08 02:39:58;;;;;;;15.98;4.18;;;6.30;99.90;;;;;;5106593;28;20460;-67
2022/05/08 02:42:24;;;;;;;17.27;4.70;;;6.30;99.90;;;;;;5099483;28;20110;-67
2022/05/08 02:44:50;;;;;;;19.40;4.15;;;6.20;99.90;;;;;;5093287;28;20032;-67
2022/05/08 02:47:15;;;;;;;16.70;4.75;;;6.20;99.90;;;;;;5078033;28;20073;-67
2022/05/08 02:49:41;;;;;;;20.58;4.93;;;6.10;99.90;;;;;;5096869;28;20040;-67
2022/05/08 02:52:07;;;;;;;16.92;4.90;;;6.10;99.90;;;;;;5081247;28;20063;-67
2022/05/08 02:54:33;;;;;;;21.30;5.18;;;6.10;99.90;;;;;;5082117;28;20053;-67
2022/05/08 02:59:43;;;;;;;21.20;5.10;;;6.00;99.90;;;;;;5097846;28;20439;-67
2022/05/08 03:02:09;;;;;;;19.70;4.95;;;6.00;99.90;;;;;;5078502;28;20067;-67
2022/05/08 03:04:35;;;;;;;16.88;4.65;;;5.90;99.90;;;;;;5094162;28;20086;-67
2022/05/08 03:07:03;;;;;;;16.27;5.05;;;5.90;99.90;;;;;;5080981;28;20036;-67
2022/05/08 03:09:29;;;;;;;14.55;4.70;;;5.90;99.90;;;;;;5081396;28;20036;-67
2022/05/08 03:11:55;;;;;;;18.13;5.38;;;5.80;99.90;;;;;;5097645;28;20145;-67
2022/05/08 03:14:20;;;;;;;18.60;4.55;;;5.80;99.90;;;;;;5096072;28;20367;-67
2022/05/08 03:16:47;;;;;;;19.98;5.57;;;5.80;99.90;;;;;;5081932;28;20055;-67
2022/05/08 03:19:13;;;;;;;14.88;4.82;;;5.80;99.90;;;;;;5074124;28;20066;-67
2022/05/08 03:21:40;;;;;;;18.73;4.32;;;5.70;99.90;;;;;;5097099;28;20044;-66
2022/05/08 03:24:07;;;;;;;16.60;4.30;;;5.70;99.90;;;;;;5075892;28;20076;-67
2022/05/08 03:26:33;;;;;;;15.23;4.72;;;5.70;99.90;;;;;;5103319;28;20118;-67
2022/05/08 03:28:59;;;;;;;21.63;5.40;;;5.70;99.90;;;;;;5097842;28;20554;-66
2022/05/08 03:31:25;;;;;;;18.30;5.05;;;5.60;99.90;;;;;;5101621;28;20044;-66
2022/05/08 03:33:51;;;;;;;17.67;4.68;;;5.60;99.90;;;;;;5075653;28;20040;-66
2022/05/08 03:36:17;;;;;;;19.80;4.53;;;5.50;99.90;;;;;;5092114;28;20482;-66
2022/05/08 03:38:44;;;;;;;21.38;5.15;;;5.50;99.90;;;;;;5095177;28;20035;-67
2022/05/08 03:41:15;;;;;;;15.80;4.22;;;5.50;99.90;;;;;;5076304;28;20048;-67
2022/05/08 03:43:42;;;;;;;20.90;4.93;;;5.40;99.90;;;;;;5099996;28;20036;-66
2022/05/08 03:46:08;;;;;;;18.63;4.55;;;5.40;99.90;;;;;;5100827;28;20036;-66
2022/05/08 03:48:35;;;;;;;16.15;4.70;;;5.40;99.90;;;;;;5100314;28;20369;-66
2022/05/08 03:51:01;;;;;;;21.13;5.18;;;5.30;99.90;;;;;;5075613;28;20120;-66
2022/05/08 03:53:27;;;;;;;20.75;5.10;;;5.30;99.90;;;;;;5103637;28;20438;-66
2022/05/08 03:55:52;;;;;;;16.42;4.72;;;5.30;99.90;;;;;;5075088;28;20123;-66
2022/05/08 03:58:18;;;;;;;18.23;5.00;;;5.20;99.90;;;;;;5098338;28;20126;-66
2022/05/08 04:00:44;;;;;;;18.63;5.18;;;5.30;99.90;;;;;;5081343;28;20070;-66
2022/05/08 04:03:10;;;;;;;10.55;4.47;;;5.30;99.90;;;;;;5079808;28;20040;-66
2022/05/08 04:05:36;;;;;;;14.68;4.78;;;5.30;99.90;;;;;;5097745;28;20135;-66
2022/05/08 04:08:01;;;;;;;15.00;4.82;;;5.30;99.90;;;;;;5082478;28;20093;-66
2022/05/08 04:10:27;;;;;;;13.73;4.57;;;5.30;99.90;;;;;;5078206;28;20585;-66
2022/05/08 04:12:53;;;;;;;10.68;3.75;;;5.30;99.90;;;;;;5101451;28;20040;-66
2022/05/08 04:18:05;;;;;;;17.08;4.63;;;5.30;99.90;;;;;;5043810;28;20040;-66
2022/05/08 04:20:30;;;;;;;11.05;3.78;;;5.30;99.90;;;;;;5096455;28;20428;-66
2022/05/08 04:25:40;;;;;;;9.75;4.10;;;5.30;99.90;;;;;;5100898;28;20055;-66
2022/05/08 04:28:06;;;;;;;9.73;3.40;;;5.30;99.90;;;;;;5096953;28;20028;-66
2022/05/08 04:30:32;;;;;;;9.57;3.15;;;5.30;99.90;;;;;;5079274;28;20089;-66
2022/05/08 04:32:58;;;;;;;10.65;3.40;;;5.30;99.90;;;;;;5078926;28;20048;-66
2022/05/08 04:35:23;;;;;;;11.95;3.45;;;5.30;99.90;;;;;;5080338;28;20040;-66
2022/05/08 04:37:49;;;;;;;9.05;3.50;;;5.30;99.90;;;;;;5076898;28;20037;-66
2022/05/08 04:40:15;;;;;;;7.65;3.03;;;5.40;99.90;;;;;;5094805;28;20043;-66
2022/05/08 04:42:40;;;;;;;10.45;3.10;;;5.40;99.90;;;;;;5078272;28;20449;-66
2022/05/08 04:45:07;;;;;;;11.38;3.70;;;5.50;99.90;;;;;;5102293;28;20058;-66
2022/05/08 04:47:33;;;;;;;6.78;3.92;;;5.50;99.90;;;;;;5081717;28;20036;-66
2022/05/08 04:49:58;;;;;;;7.72;3.42;;;5.60;99.90;;;;;;5100213;28;20428;-66
2022/05/08 04:52:24;;;;;;;9.30;3.28;;;5.70;99.90;;;;;;5103146;28;20032;-66
2022/05/08 04:54:49;;;;;;;12.38;3.90;;;5.80;99.90;;;;;;5101274;28;20047;-66
2022/05/08 04:57:15;;;;;;;13.90;4.25;;;5.90;99.90;;;;;;5085002;28;20597;-66
2022/05/08 04:59:41;;;;;;;12.30;4.53;;;6.00;99.90;;;;;;5081912;28;20829;-66
2022/05/08 05:02:08;;;;;;;13.32;4.32;;;6.10;99.90;;;;;;5083701;28;20032;-66
2022/05/08 05:04:35;;;;;;;12.38;4.55;;;6.20;99.90;;;;;;5099362;28;20047;-66
2022/05/08 05:07:01;;;;;;;9.07;3.45;;;6.40;99.90;;;;;;5084496;28;20411;-66
2022/05/08 05:09:27;;;;;;;8.63;3.65;;;6.50;99.90;;;;;;5067380;28;20139;-66
2022/05/08 05:11:53;;;;;;;12.95;4.47;;;6.60;99.90;;;;;;5081964;28;20450;-66
2022/05/08 05:14:19;;;;;;;13.90;4.03;;;6.70;99.90;;;;;;5097472;28;20103;-66
2022/05/08 05:16:44;;;;;;;18.70;4.82;;;6.80;99.90;;;;;;5097412;28;20036;-66
2022/05/08 05:19:11;;;;;;;15.85;4.15;;;6.90;99.90;;;;;;5082681;28;20130;-66
2022/05/08 05:21:37;;;;;;;13.10;4.03;;;7.00;99.90;;;;;;5100113;28;20051;-66
2022/05/08 05:24:03;;;;;;;15.85;4.03;;;7.20;99.90;;;;;;5099019;28;20040;-66
2022/05/08 05:26:28;;;;;;;14.98;4.10;;;7.20;99.90;;;;;;5100085;28;20075;-66
2022/05/08 05:28:54;;;;;;;15.65;3.50;;;7.30;99.90;;;;;;5095926;28;20463;-66
2022/05/08 05:31:20;;;;;;;16.52;4.90;;;7.40;99.90;;;;;;5098562;28;20046;-66
2022/05/08 05:33:46;;;;;;;9.00;3.58;;;7.50;99.90;;;;;;5077750;28;20395;-66
2022/05/08 05:36:13;;;;;;;13.25;4.32;;;7.70;99.90;;;;;;5098615;28;20050;-66
2022/05/08 05:38:39;;;;;;;12.25;3.10;;;7.80;99.90;;;;;;5097739;28;20050;-66
2022/05/08 05:41:04;;;;;;;12.55;3.22;;;8.00;99.90;;;;;;5083482;28;20043;-66
2022/05/08 05:43:32;;;;;;;13.95;3.08;;;8.10;99.90;;;;;;5099406;28;20093;-66
2022/05/08 05:48:41;;;;;;;10.13;2.63;;;8.30;99.90;;;;;;5093814;28;20164;-66
2022/05/08 05:51:07;;;;;;;12.02;2.80;;;8.50;99.90;;;;;;5093776;28;20439;-66
2022/05/08 05:53:33;;;;;;;12.95;3.42;;;8.70;99.90;;;;;;5102833;28;20058;-66
2022/05/08 05:55:59;;;;;;;11.38;3.10;;;8.80;99.90;;;;;;5097096;28;20031;-66
2022/05/08 05:58:25;;;;;;;12.15;2.80;;;8.90;99.90;;;;;;5100008;28;20055;-65
2022/05/08 06:00:51;;;;;;;14.02;3.08;;;9.10;99.90;;;;;;5096483;28;20042;-66
2022/05/08 06:03:17;;;;;;;12.48;2.47;;;9.20;99.90;;;;;;5075780;28;20046;-66
2022/05/08 06:05:43;;;;;;;11.65;2.60;;;9.30;99.90;;;;;;5095756;28;20437;-66
2022/05/08 06:08:09;;;;;;;11.48;2.63;;;9.40;99.90;;;;;;5083981;28;20043;-66
2022/05/08 06:10:35;;;;;;;12.25;2.42;;;9.50;99.90;;;;;;5094100;28;20048;-66
2022/05/08 06:13:02;;;;;;;13.32;2.90;;;9.70;99.90;;;;;;5079637;28;20249;-66
2022/05/08 06:15:28;;;;;;;12.27;2.38;;;9.80;99.90;;;;;;5099243;28;20054;-66
2022/05/08 06:17:55;;;;;;;12.95;2.10;;;10.00;99.90;;;;;;5076765;28;20035;-66
2022/05/08 06:20:21;;;;;;;9.15;2.13;;;10.10;99.90;;;;;;5081003;28;20044;-66
2022/05/08 06:22:46;;;;;;;8.95;1.90;;;10.30;99.90;;;;;;5096252;28;20043;-66
2022/05/08 06:25:12;;;;;;;8.32;1.88;;;10.30;99.90;;;;;;5081345;28;20500;-66
2022/05/08 06:27:38;;;;;;;8.20;1.95;;;10.40;99.90;;;;;;5096940;28;20399;-66
2022/05/08 06:30:07;;;;;;;13.93;3.13;;;10.40;99.90;;;;;;5084796;28;20076;-67
2022/05/08 06:32:34;;;;;;;8.32;1.98;;;10.50;99.90;;;;;;5094596;28;20064;-66
2022/05/08 06:35:00;;;;;;;12.07;1.70;;;10.60;99.90;;;;;;5080823;28;20036;-66
2022/05/08 06:37:26;;;;;;;10.40;1.83;;;10.70;99.90;;;;;;5095638;28;20053;-66
2022/05/08 06:39:52;;;;;;;7.38;1.65;;;10.70;99.90;;;;;;5080092;28;20126;-67
2022/05/08 06:42:18;;;;;;;10.23;1.60;;;10.80;99.90;;;;;;5076172;28;20097;-67
2022/05/08 06:44:44;;;;;;;11.88;2.05;;;10.90;99.90;;;;;;5079179;28;20181;-67
2022/05/08 06:47:10;;;;;;;7.05;1.73;;;10.90;99.40;;;;;;5097278;28;20040;-67
2022/05/08 06:49:36;;;;;;;10.48;1.33;;;11.00;99.90;;;;;;5095901;28;20043;-67
2022/05/08 06:52:02;;;;;;;7.40;1.40;;;11.30;99.90;;;;;;5099113;28;20610;-67
2022/05/08 06:54:28;;;;;;;7.28;1.27;;;11.40;97.70;;;;;;5077796;28;20048;-67
2022/05/08 06:56:55;;;;;;;9.23;1.67;;;11.40;96.30;;;;;;5063998;28;20051;-67
2022/05/08 07:02:07;;;;;;;6.35;1.08;;;11.30;96.20;;;;;;5075982;28;20126;-67
2022/05/08 07:04:33;;;;;;;7.22;1.05;;;11.40;96.40;;;;;;5071969;28;20047;-67
2022/05/08 07:06:59;;;;;;;8.73;1.35;;;11.40;96.00;;;;;;5059741;28;20134;-67
2022/05/08 07:09:24;;;;;;;7.53;1.80;;;11.40;96.20;;;;;;5100462;28;20126;-67
2022/05/08 07:11:50;;;;;;;10.57;1.48;;;11.50;95.80;;;;;;5073646;28;20040;-67
2022/05/08 07:14:16;;;;;;;8.02;1.50;;;11.60;96.20;;;;;;5103419;28;20071;-67
2022/05/08 07:16:43;;;;;;;6.90;1.40;;;11.90;96.60;;;;;;5090845;28;20035;-67
2022/05/08 07:19:10;;;;;;;8.98;1.40;;;12.00;95.70;;;;;;5090829;28;20079;-67
2022/05/08 07:21:36;;;;;;;7.55;1.83;;;12.10;95.10;;;;;;5075057;28;20068;-66
2022/05/08 07:24:02;;;;;;;7.93;1.40;;;12.50;94.50;;;;;;5097589;28;20443;-66
2022/05/08 07:26:27;;;;;;;6.40;1.15;;;13.20;93.90;;;;;;5097414;28;20048;-66
2022/05/08 07:28:54;;;;;;;5.25;0.90;;;13.80;92.00;;;;;;5095379;28;20048;-66
2022/05/08 07:31:20;;;;;;;5.53;0.90;;;14.50;91.00;;;;;;5081922;28;20113;-66
2022/05/08 07:33:46;;;;;;;8.82;1.10;;;14.80;85.50;;;;;;5095018;28;20544;-67
2022/05/08 07:36:14;;;;;;;9.02;1.50;;;14.90;81.50;;;;;;5096856;28;20071;-67
2022/05/08 07:38:45;;;;;;;8.48;1.40;;;14.70;77.90;;;;;;5092829;28;20069;-67
2022/05/08 07:41:14;;;;;;;6.68;1.05;;;14.50;76.60;;;;;;5097105;28;20114;-66
2022/05/08 07:43:41;;;;;;;8.75;1.63;;;14.20;74.70;;;;;;5096626;28;20051;-66
2022/05/08 07:46:06;;;;;;;10.20;1.60;;;14.30;78.50;;;;;;5097733;28;20039;-66
2022/05/08 07:48:32;;;;;;;7.78;1.52;;;14.50;76.20;;;;;;5075235;28;20135;-67
2022/05/08 07:51:00;;;;;;;7.57;1.30;;;14.70;75.10;;;;;;5097523;28;20093;-67
2022/05/08 07:53:30;;;;;;;6.25;1.20;;;14.60;75.00;;;;;;5090383;28;20050;-67
2022/05/08 07:55:56;;;;;;;6.93;1.40;;;14.50;75.30;;;;;;5095077;28;20131;-67
2022/05/08 07:58:22;;;;;;;7.18;1.00;;;14.50;75.40;;;;;;5064915;28;20427;-67
2022/05/08 08:00:53;;;;;;;7.60;1.40;;;14.70;75.20;;;;;;5078491;28;20115;-67
2022/05/08 08:03:21;;;;;;;8.10;1.20;;;15.20;72.40;;;;;;5096304;28;20047;-67
2022/05/08 08:05:48;;;;;;;4.88;1.15;;;15.40;73.10;;;;;;5097870;28;20051;-67
2022/05/08 08:08:15;;;;;;;9.45;1.17;;;15.40;72.60;;;;;;5070124;28;20111;-67
2022/05/08 08:10:41;;;;;;;5.03;1.25;;;15.50;73.00;;;;;;5095367;28;20032;-67
2022/05/08 08:13:06;;;;;;;7.40;1.45;;;15.70;73.40;;;;;;5092107;28;20058;-68
2022/05/08 08:15:33;;;;;;;8.50;1.35;;;16.00;73.10;;;;;;5093458;28;20041;-68
2022/05/08 08:17:59;;;;;;;7.60;1.13;;;16.30;70.40;;;;;;5094261;28;20040;-68
2022/05/08 08:20:25;;;;;;;6.55;1.52;;;16.40;68.70;;;;;;5097366;28;20039;-68
2022/05/08 08:22:50;;;;;;;6.15;1.42;;;16.50;70.10;;;;;;5097048;28;20039;-68
2022/05/08 08:25:16;;;;;;;8.50;1.70;;;16.70;67.00;;;;;;5100187;28;20043;-68
2022/05/08 08:27:42;;;;;;;9.45;1.67;;;17.00;65.20;;;;;;5102576;28;20457;-68
2022/05/08 08:30:08;;;;;;;8.45;1.30;;;17.10;61.10;;;;;;5083613;28;20048;-68
2022/05/08 08:32:34;;;;;;;7.70;1.48;;;16.80;61.20;;;;;;5086796;28;20081;-68
2022/05/08 08:34:59;;;;;;;8.38;1.75;;;16.60;63.10;;;;;;5100719;28;20043;-68
2022/05/08 08:37:26;;;;;;;5.95;1.30;;;16.90;65.50;;;;;;5082096;28;20122;-68
2022/05/08 08:39:51;;;;;;;6.53;1.70;;;17.40;64.20;;;;;;5103263;28;20039;-68
2022/05/08 08:42:31;;;;;;;6.20;1.38;;;17.40;59.30;;;;;;5101025;28;20124;-68
2022/05/08 08:47:52;;;;;;;5.85;1.17;;;17.50;60.70;;;;;;5107150;28;20054;-68
2022/05/08 08:50:22;;;;;;;7.35;1.52;;;17.80;62.10;;;;;;5098466;28;20040;-68
2022/05/08 08:52:48;;;;;;;9.50;2.03;;;18.00;60.80;;;;;;5082169;28;20147;-68
2022/05/08 08:55:16;;;;;;;8.68;1.80;;;18.30;61.90;;;;;;5099720;28;20162;-68
2022/05/08 08:57:43;;;;;;;6.88;1.80;;;18.10;59.80;;;;;;5095413;28;20067;-68
2022/05/08 09:00:10;;;;;;;9.13;1.80;;;17.90;59.80;;;;;;5079844;28;20119;-68
2022/05/08 09:02:36;;;;;;;7.10;1.60;;;18.00;61.40;;;;;;5108906;28;20054;-68
2022/05/08 09:05:07;;;;;;;7.90;1.52;;;18.20;60.10;;;;;;5098497;28;20112;-68
2022/05/08 09:07:46;;;;;;;8.10;1.42;;;18.40;59.30;;;;;;5079565;28;20052;-70
2022/05/08 09:10:18;;;;;;;9.55;1.75;;;18.60;58.40;;;;;;5079525;28;20052;-70
2022/05/08 09:12:53;;;;;;;10.48;1.98;;;18.50;58.90;;;;;;5097681;28;20133;-72
2022/05/08 09:15:27;;;;;;;10.57;1.80;;;18.00;56.80;;;;;;5080729;28;20048;-73
2022/05/08 09:18:01;;;;;;;6.50;1.60;;;17.70;58.10;;;;;;5098620;28;20036;-73
2022/05/08 09:20:33;;;;;;;12.70;1.90;;;17.60;58.70;;;;;;5081037;28;20078;-70
2022/05/08 09:23:19;;;;;;;9.23;1.42;;;17.50;59.30;;;;;;5079157;28;20483;-70
2022/05/08 09:25:56;;;;;;;6.80;1.45;;;17.80;60.00;;;;;;5082131;28;20060;-69
2022/05/08 09:28:25;;;;;;;9.98;1.50;;;18.20;56.70;;;;;;5097737;28;20052;-70
2022/05/08 09:31:06;;;;;;;8.70;1.80;;;18.20;57.90;;;;;;5083715;28;20100;-73
2022/05/08 09:33:36;;;;;;;9.52;1.58;;;18.40;56.60;;;;;;5078362;28;20044;-72
2022/05/08 09:36:09;;;;;;;5.68;1.50;;;18.30;57.40;;;;;;5067645;28;20196;-72
2022/05/08 09:38:41;;;;;;;;;;;18.10;55.60;;;;;;5080896;28;20125;-76
2022/05/08 09:41:08;;;;;;;11.18;1.73;;;18.00;55.90;;;;;;5083335;28;19970;-81
2022/05/08 09:43:34;;;;;;;7.55;1.40;;;17.80;58.90;;;;;;5079325;28;20044;-74
2022/05/08 09:46:02;;;;;;;6.50;1.63;;;17.80;57.40;;;;;;5077940;28;20472;-78
2022/05/08 09:48:29;;;;;;;10.65;1.70;;;18.00;57.70;;;;;;5081718;28;20130;-75
2022/05/08 09:51:00;;;;;;;32.20;5.28;;;17.90;54.80;;;;;;5062797;28;20079;-73
2022/05/08 09:53:27;;;;;;;6.82;1.48;;;18.00;55.10;;;;;;5081217;28;20101;-73
2022/05/08 09:55:54;;;;;;;8.15;1.95;;;17.90;55.00;;;;;;5077759;28;20044;-73
2022/05/08 09:58:21;;;;;;;7.22;1.45;;;18.00;55.80;;;;;;5080254;28;20120;-73
2022/05/08 10:00:48;;;;;;;6.55;1.77;;;18.30;55.20;;;;;;5078637;28;20062;-74
2022/05/08 10:03:17;;;;;;;8.25;1.88;;;18.30;54.00;;;;;;5057987;28;20520;-74
2022/05/08 10:05:44;;;;;;;7.35;1.35;;;18.10;55.70;;;;;;5083215;28;20043;-70
2022/05/08 10:08:12;;;;;;;9.25;1.50;;;18.20;54.80;;;;;;5096752;28;20040;-70
2022/05/08 10:13:56;;;;;;;4.30;1.40;;;18.10;54.20;;;;;;5100624;28;20083;-70
2022/05/08 10:16:45;;;;;;;9.85;1.95;;;18.10;53.70;;;;;;5083555;28;20451;-76
2022/05/08 10:19:21;;;;;;;10.18;1.65;;;18.10;53.20;;;;;;5079341;28;20442;-76
2022/05/08 10:21:56;;;;;;;9.20;1.60;;;18.00;51.80;;;;;;5077573;28;20479;-77
2022/05/08 10:24:32;;;;;;;9.35;1.83;;;18.10;52.50;;;;;;5063211;28;20447;-77
2022/05/08 10:27:23;;;;;;;5.88;1.60;;;18.40;53.30;;;;;;5069621;28;20055;-69
2022/05/08 10:29:54;;;;;;;5.78;1.40;;;18.70;53.90;;;;;;5105447;28;20546;-70
2022/05/08 10:32:32;;;;;;;8.45;1.50;;;18.80;51.00;;;;;;5105020;28;20496;-69
2022/05/08 10:35:14;;;;;;;5.50;1.63;;;18.70;51.10;;;;;;5094043;28;20032;-69
2022/05/08 10:37:46;;;;;;;4.10;1.35;;;19.10;53.50;;;;;;5081054;28;20403;-69
2022/05/08 10:40:24;;;;;;;7.18;1.50;;;19.30;50.90;;;;;;5105845;28;20420;-69
2022/05/08 10:42:56;;;;;;;5.85;1.38;;;19.60;51.60;;;;;;5074722;28;20048;-69
2022/05/08 10:45:31;;;;;;;9.32;1.55;;;19.70;48.10;;;;;;5104519;28;20062;-69
2022/05/08 10:48:04;;;;;;;6.55;1.38;;;19.50;47.00;;;;;;5096451;28;20055;-69
2022/05/08 10:50:30;;;;;;;8.07;1.55;;;19.60;47.90;;;;;;5093782;28;20472;-69
2022/05/08 10:52:58;;;;;;;6.10;1.40;;;19.40;47.70;;;;;;5098371;28;20134;-69
2022/05/08 10:55:25;;;;;;;6.30;1.70;;;19.30;49.70;;;;;;5106772;28;20032;-69
2022/05/08 10:57:51;;;;;;;11.40;1.60;;;19.30;50.10;;;;;;5104940;28;20101;-69
2022/05/08 11:00:17;;;;;;;9.02;1.77;;;19.00;50.60;;;;;;5083864;28;20048;-69
2022/05/08 11:02:44;;;;;;;8.50;1.48;;;19.20;50.90;;;;;;5079526;28;20084;-69
2022/05/08 11:05:24;;;;;;;8.23;1.73;;;19.50;51.00;;;;;;5096793;28;20043;-69
2022/05/08 11:07:58;;;;;;;8.38;1.52;;;19.80;47.90;;;;;;5079203;28;20109;-68
2022/05/08 11:10:28;;;;;;;7.22;1.38;;;19.80;46.30;;;;;;5099270;28;20040;-69
2022/05/08 11:13:02;;;;;;;4.82;1.02;;;19.40;47.10;;;;;;5079126;28;20109;-69
2022/05/08 11:15:48;;;;;;;6.15;1.67;;;19.30;47.00;;;;;;5066819;28;20484;-69
2022/05/08 11:18:22;;;;;;;6.30;1.50;;;19.30;46.80;;;;;;5098864;28;20030;-69
2022/05/08 11:20:54;;;;;;;4.18;1.50;;;19.20;48.20;;;;;;5099816;28;20519;-69
2022/05/08 11:23:24;;;;;;;7.45;1.75;;;19.30;48.60;;;;;;5095531;28;20081;-70
2022/05/08 11:25:53;;;;;;;9.73;1.40;;;19.50;47.00;;;;;;5105750;28;20069;-70
2022/05/08 11:28:21;;;;;;;8.82;2.25;;;19.80;48.70;;;;;;5110683;28;20083;-70
2022/05/08 11:30:48;;;;;;;8.40;1.85;;;20.00;47.20;;;;;;5094619;28;20056;-70
2022/05/08 11:36:08;;;;;;;8.75;1.95;;;20.20;46.40;;;;;;5094265;28;20086;-70
2022/05/08 11:38:48;;;;;;;7.90;1.83;;;20.00;45.80;;;;;;5093502;28;20413;-69
2022/05/08 11:41:22;;;;;;;6.93;1.55;;;19.90;45.10;;;;;;5097952;28;20555;-68
2022/05/08 11:43:50;;;;;;;5.97;1.40;;;20.10;45.80;;;;;;5075242;28;20056;-70
2022/05/08 11:46:38;;;;;;;5.72;1.52;;;20.10;46.50;;;;;;5088679;28;20058;-70
2022/05/08 11:49:24;;;;;;;5.57;1.55;;;20.30;44.90;;;;;;5076921;28;20036;-70
2022/05/08 11:51:57;;;;;;;7.25;1.67;;;20.20;43.70;;;;;;5096134;28;20087;-70
2022/05/08 11:54:35;;;;;;;7.60;1.83;;;20.10;45.80;;;;;;5077833;28;20036;-70
2022/05/08 11:57:21;;;;;;;6.07;1.40;;;20.10;45.70;;;;;;5079668;28;20036;-69
2022/05/08 11:59:49;;;;;;;8.07;1.65;;;20.40;46.80;;;;;;5102821;28;20046;-68
2022/05/08 12:02:16;;;;;;;9.02;1.75;;;20.50;47.10;;;;;;5101113;28;20663;-68
2022/05/08 12:04:52;;;;;;;6.22;1.33;;;20.70;45.00;;;;;;5103402;28;20051;-68
2022/05/08 12:07:18;;;;;;;6.43;1.42;;;20.80;43.80;;;;;;5082425;28;20032;-68
2022/05/08 12:09:44;;;;;;;8.13;2.08;;;20.80;44.60;;;;;;5085381;28;20027;-68
2022/05/08 12:12:26;;;;;;;5.53;1.50;;;20.80;44.20;;;;;;5101375;28;20036;-68
2022/05/08 12:14:54;;;;;;;5.90;1.45;;;20.80;43.70;;;;;;5083138;28;20040;-68
2022/05/08 12:17:20;;;;;;;9.60;1.88;;;20.50;44.60;;;;;;5093448;28;20089;-69
2022/05/08 12:19:51;;;;;;;10.20;2.10;;;20.10;46.00;;;;;;5083075;28;20526;-69
2022/05/08 12:22:25;;;;;;;5.88;1.45;;;20.00;45.30;;;;;;5099624;28;20040;-69
2022/05/08 12:24:55;;;;;;;9.15;2.00;;;19.80;46.30;;;;;;5083764;28;20126;-69
2022/05/08 12:27:21;;;;;;;8.77;1.75;;;20.00;47.10;;;;;;5103054;28;20480;-69
2022/05/08 12:29:47;;;;;;;6.88;1.90;;;20.20;46.50;;;;;;5087735;28;20036;-69
2022/05/08 12:32:15;;;;;;;5.78;1.42;;;20.50;45.50;;;;;;5103231;28;20038;-69
2022/05/08 12:34:41;;;;;;;4.93;1.67;;;20.40;44.60;;;;;;5075514;28;20048;-69
2022/05/08 12:37:15;;;;;;;7.15;1.90;;;20.30;44.70;;;;;;5082710;28;20074;-69
2022/05/08 12:39:42;;;;;;;7.45;1.33;;;20.20;44.30;;;;;;5109164;28;20122;-69
2022/05/08 12:42:09;;;;;;;6.70;1.80;;;20.30;45.50;;;;;;5081818;28;20051;-69
2022/05/08 12:44:39;;;;;;;9.32;1.63;;;20.20;43.50;;;;;;5099863;28;20047;-69
2022/05/08 12:47:06;;;;;;;7.13;1.60;;;20.40;44.80;;;;;;5101140;28;20097;-69
2022/05/08 12:49:33;;;;;;;9.40;1.75;;;20.50;43.70;;;;;;5079337;28;20043;-69
2022/05/08 12:52:00;;;;;;;6.22;1.73;;;20.50;42.70;;;;;;5066846;28;20044;-69
2022/05/08 12:54:25;;;;;;;4.95;1.13;;;20.30;42.70;;;;;;5102620;28;20077;-69
2022/05/08 12:56:51;;;;;;;8.70;1.85;;;20.20;40.80;;;;;;5084647;28;20055;-69
2022/05/08 13:02:01;;;;;;;8.38;1.75;;;20.00;42.80;;;;;;5100736;28;20676;-69
2022/05/08 13:04:27;;;;;;;7.90;1.48;;;20.30;44.40;;;;;;5081795;28;20134;-69
2022/05/08 13:06:52;;;;;;;6.80;1.52;;;20.40;43.60;;;;;;5068730;28;20044;-69
2022/05/08 13:09:19;;;;;;;7.20;1.95;;;20.20;43.30;;;;;;5078916;28;20051;-69
2022/05/08 13:11:46;;;;;;;7.53;1.60;;;20.00;42.60;;;;;;5083027;28;20043;-69
2022/05/08 13:14:12;;;;;;;8.82;1.55;;;19.70;42.20;;;;;;5090404;28;20063;-70
2022/05/08 13:16:38;;;;;;;8.10;1.88;;;19.50;42.90;;;;;;5084886;28;20095;-69